Terminal Aerodrome Forecast
Issued by NWS Jacksonville, FL

Home | Current Version | Previous Version | Text Only | Print | Product List | Glossary On
Versions: 1 2 3 4 5 6 7 8 9 10 11 12 13 14 15 16 17
481
FTUS42 KJAX 281720
TAFSSI
TAF
KSSI 281720Z 2818/2918 07012G18KT P6SM VCSH SCT020 BKN035
     FM290000 06008KT P6SM VCSH SCT015 SCT030
     FM291400 07012G18KT P6SM VCSH SCT020 BKN035=

USA.gov is the U.S. government's official web portal to all federal, state and local government web resources and services.